createdAt,value
2019-02-28T00:01:25.512Z,10.47
2019-02-28T00:03:57.961Z,10.73
2019-02-28T00:06:27.097Z,9.87
2019-02-28T00:08:57.102Z,9.53
2019-02-28T00:11:27.143Z,11.93
2019-02-28T00:13:57.077Z,10.30
2019-02-28T00:16:27.125Z,11.30
2019-02-28T00:18:57.121Z,10.53
2019-02-28T00:21:27.088Z,10.30
2019-02-28T00:23:57.521Z,11.53
2019-02-28T00:26:27.544Z,10.30
2019-02-28T00:29:00.457Z,11.13
2019-02-28T00:31:29.175Z,10.37
2019-02-28T00:33:59.080Z,10.43
2019-02-28T00:36:29.062Z,10.60
2019-02-28T00:38:59.941Z,10.87
2019-02-28T00:41:30.795Z,10.20
2019-02-28T00:44:00.751Z,9.53
2019-02-28T00:46:30.704Z,9.67
2019-02-28T00:49:00.630Z,10.27
2019-02-28T00:51:30.789Z,11.43
2019-02-28T00:54:00.879Z,10.33
2019-02-28T00:56:30.818Z,11.10
2019-02-28T00:59:01.167Z,11.03
2019-02-28T01:01:31.273Z,11.57
2019-02-28T01:04:01.213Z,11.10
2019-02-28T01:06:31.156Z,11.60
2019-02-28T01:09:01.103Z,10.70
2019-02-28T01:11:31.217Z,12.20
2019-02-28T01:14:01.662Z,11.03
2019-02-28T01:16:32.372Z,10.83
2019-02-28T01:19:02.326Z,11.60
2019-02-28T01:21:32.299Z,10.33
2019-02-28T01:24:02.403Z,11.10
2019-02-28T01:26:32.440Z,11.00
2019-02-28T01:29:02.759Z,10.30
2019-02-28T01:31:32.976Z,11.27
2019-02-28T01:34:03.018Z,11.63
2019-02-28T01:36:32.961Z,11.50
2019-02-28T01:39:03.408Z,12.40
2019-02-28T01:41:33.435Z,11.73
2019-02-28T01:44:03.552Z,11.17
2019-02-28T01:46:33.549Z,11.33
2019-02-28T01:49:03.623Z,10.50
2019-02-28T01:51:36.633Z,10.60
2019-02-28T01:54:06.784Z,11.97
2019-02-28T01:56:36.959Z,11.70
2019-02-28T01:59:07.782Z,13.30
2019-02-28T02:01:37.697Z,12.07
2019-02-28T02:04:07.682Z,11.17
2019-02-28T02:06:37.613Z,11.07
2019-02-28T02:09:08.162Z,11.60
2019-02-28T02:11:39.378Z,12.33
2019-02-28T02:14:11.054Z,11.13
2019-02-28T02:16:41.015Z,11.47
2019-02-28T02:19:11.078Z,12.50
2019-02-28T02:21:41.030Z,11.97
2019-02-28T02:24:10.981Z,10.70
2019-02-28T02:26:42.342Z,11.40
2019-02-28T02:29:12.505Z,11.70
2019-02-28T02:31:43.595Z,11.23
2019-02-28T02:34:13.887Z,12.83
2019-02-28T02:36:43.828Z,12.00
2019-02-28T02:39:17.566Z,10.87
2019-02-28T02:41:45.357Z,11.70
2019-02-28T02:44:15.350Z,11.87
2019-02-28T02:46:45.292Z,12.93
2019-02-28T02:49:19.864Z,11.30
2019-02-28T02:51:50.362Z,10.60
2019-02-28T02:54:20.148Z,11.90
2019-02-28T02:56:50.129Z,11.70
2019-02-28T02:59:20.163Z,11.67
2019-02-28T03:01:50.172Z,12.23
2019-02-28T03:04:23.136Z,11.70
2019-02-28T03:06:51.761Z,12.60
2019-02-28T03:09:21.707Z,11.43
2019-02-28T03:11:51.704Z,11.20
2019-02-28T03:14:21.678Z,12.37
2019-02-28T03:16:51.800Z,11.07
2019-02-28T03:19:21.826Z,13.30
2019-02-28T03:21:52.957Z,12.50
2019-02-28T03:24:23.093Z,12.60
2019-02-28T03:26:53.031Z,11.30
2019-02-28T03:29:23.071Z,11.63
2019-02-28T03:31:56.458Z,10.87
2019-02-28T03:34:24.642Z,14.60
2019-02-28T03:36:57.058Z,13.47
2019-02-28T03:39:26.131Z,14.33
2019-02-28T03:41:56.472Z,13.53
2019-02-28T03:44:26.559Z,11.87
2019-02-28T03:46:56.589Z,12.33
2019-02-28T03:49:26.561Z,12.13
2019-02-28T03:51:56.590Z,13.10
2019-02-28T03:54:28.930Z,13.20
2019-02-28T03:56:58.150Z,12.63
2019-02-28T03:59:28.147Z,13.20
2019-02-28T04:01:58.334Z,14.07
2019-02-28T04:04:28.455Z,14.70
2019-02-28T04:06:58.539Z,16.97
2019-02-28T04:09:28.552Z,16.00
2019-02-28T04:11:58.865Z,13.40
2019-02-28T04:14:33.114Z,13.60
2019-02-28T04:17:00.674Z,13.80
2019-02-28T04:19:30.664Z,13.57
2019-02-28T04:22:00.678Z,13.37
2019-02-28T04:24:30.640Z,14.30
2019-02-28T04:27:06.314Z,12.90
2019-02-28T04:29:32.407Z,12.97
2019-02-28T04:32:02.466Z,14.83
2019-02-28T04:34:32.432Z,13.53
2019-02-28T04:37:02.378Z,14.60
2019-02-28T04:39:32.426Z,14.63
2019-02-28T04:42:05.024Z,14.70
2019-02-28T04:44:34.101Z,13.60
2019-02-28T04:47:06.785Z,14.67
2019-02-28T04:49:35.725Z,15.77
2019-02-28T04:52:05.702Z,14.00
2019-02-28T04:54:35.728Z,14.03
2019-02-28T04:57:05.958Z,15.80
2019-02-28T04:59:36.016Z,15.00
2019-02-28T05:02:06.051Z,15.00
2019-02-28T05:04:36.317Z,16.83
2019-02-28T05:07:06.918Z,16.37
2019-02-28T05:09:36.979Z,16.80
2019-02-28T05:12:06.985Z,16.53
2019-02-28T05:14:37.034Z,16.73
2019-02-28T05:17:07.017Z,17.00
2019-02-28T05:19:36.977Z,17.40
2019-02-28T05:22:06.943Z,17.00
2019-02-28T05:24:39.450Z,18.83
2019-02-28T05:27:08.450Z,18.60
2019-02-28T05:29:38.385Z,18.50
2019-02-28T05:32:08.340Z,18.03
2019-02-28T05:34:38.386Z,17.83
2019-02-28T05:37:12.283Z,17.70
2019-02-28T05:39:39.933Z,17.70
2019-02-28T05:42:10.491Z,17.20
2019-02-28T05:44:41.746Z,17.70
2019-02-28T05:47:12.596Z,19.23
2019-02-28T05:49:43.110Z,20.03
2019-02-28T05:52:15.315Z,20.40
2019-02-28T05:54:47.321Z,20.60
2019-02-28T05:57:18.210Z,18.80
2019-02-28T05:59:48.340Z,19.70
2019-02-28T06:02:18.934Z,18.77
2019-02-28T06:04:50.096Z,20.33
2019-02-28T06:07:20.089Z,21.53
2019-02-28T06:09:50.034Z,19.40
2019-02-28T06:12:20.081Z,20.10
2019-02-28T06:14:50.291Z,20.57
2019-02-28T06:17:20.635Z,21.50
2019-02-28T06:19:51.722Z,20.97
2019-02-28T06:22:21.656Z,20.93
2019-02-28T06:24:51.745Z,24.03
2019-02-28T06:27:21.751Z,28.47
2019-02-28T06:29:55.826Z,26.00
2019-02-28T06:32:27.324Z,22.33
2019-02-28T06:34:57.549Z,20.60
2019-02-28T06:37:27.513Z,21.77
2019-02-28T06:39:58.597Z,24.27
2019-02-28T06:42:29.277Z,24.10
2019-02-28T06:45:02.543Z,21.70
2019-02-28T06:47:30.995Z,20.40
2019-02-28T06:50:01.037Z,18.40
2019-02-28T06:52:31.057Z,21.10
2019-02-28T06:55:01.142Z,19.30
2019-02-28T06:57:33.020Z,21.73
2019-02-28T07:00:03.576Z,21.00
2019-02-28T07:02:33.512Z,21.57
2019-02-28T07:05:03.471Z,21.30
2019-02-28T07:07:33.615Z,21.53
2019-02-28T07:10:03.577Z,21.03
2019-02-28T07:12:33.625Z,21.37
2019-02-28T07:15:03.735Z,22.37
2019-02-28T07:17:33.688Z,22.73
2019-02-28T07:20:04.011Z,23.00
2019-02-28T07:22:33.958Z,23.83
2019-02-28T07:25:04.098Z,22.70
2019-02-28T07:27:34.239Z,22.70
2019-02-28T07:30:04.755Z,23.10
2019-02-28T07:32:35.045Z,22.70
2019-02-28T07:35:05.315Z,23.50
2019-02-28T07:37:35.260Z,23.80
2019-02-28T07:40:05.939Z,26.67
2019-02-28T07:42:37.592Z,25.07
2019-02-28T07:45:08.216Z,24.93
2019-02-28T07:47:37.752Z,24.00
2019-02-28T07:50:10.716Z,24.60
2019-02-28T07:52:40.234Z,25.30
2019-02-28T07:55:11.236Z,25.30
2019-02-28T07:57:41.211Z,28.47
2019-02-28T08:00:18.213Z,25.30
2019-02-28T08:02:48.108Z,26.00
2019-02-28T08:05:18.042Z,27.13
2019-02-28T08:07:52.032Z,27.27
2019-02-28T08:10:19.153Z,27.37
2019-02-28T08:12:49.004Z,29.03
2019-02-28T08:15:22.330Z,26.60
2019-02-28T08:17:52.778Z,27.33
2019-02-28T08:20:22.809Z,30.77
2019-02-28T08:22:56.813Z,32.40
2019-02-28T08:25:24.657Z,30.00
2019-02-28T08:27:59.177Z,36.60
2019-02-28T08:30:26.194Z,34.73
2019-02-28T08:32:56.158Z,37.33
2019-02-28T08:35:26.090Z,38.37
2019-02-28T08:37:57.321Z,36.47
2019-02-28T08:40:27.555Z,39.40
2019-02-28T08:42:57.509Z,39.07
2019-02-28T08:45:32.735Z,37.93
2019-02-28T08:47:59.025Z,36.10
2019-02-28T08:50:28.995Z,38.70
2019-02-28T08:52:58.966Z,40.60
2019-02-28T08:55:29.456Z,41.30
2019-02-28T08:58:05.084Z,40.63
2019-02-28T09:00:33.009Z,38.93
2019-02-28T09:03:02.957Z,41.27
2019-02-28T09:05:32.885Z,39.40
2019-02-28T09:08:02.837Z,40.77
2019-02-28T09:10:32.881Z,40.07
2019-02-28T09:13:07.584Z,42.70
2019-02-28T09:15:36.444Z,41.13
2019-02-28T09:18:08.744Z,38.70
2019-02-28T09:20:41.410Z,42.40
2019-02-28T09:23:10.406Z,42.97
2019-02-28T09:25:40.324Z,40.20
2019-02-28T09:28:12.918Z,40.00
2019-02-28T09:30:42.036Z,39.47
2019-02-28T09:33:12.070Z,41.37
2019-02-28T09:35:46.309Z,38.10
2019-02-28T09:38:14.318Z,42.37
2019-02-28T09:40:44.367Z,40.93
2019-02-28T09:43:14.328Z,37.33
2019-02-28T09:45:44.404Z,39.33
2019-02-28T09:48:15.370Z,38.40
2019-02-28T09:50:45.335Z,39.50
2019-02-28T09:53:16.572Z,38.83
2019-02-28T09:55:46.661Z,39.23
2019-02-28T09:58:16.615Z,39.53
2019-02-28T10:00:50.280Z,38.40
2019-02-28T10:03:19.534Z,37.37
2019-02-28T10:05:49.703Z,41.97
2019-02-28T10:08:21.660Z,41.10
2019-02-28T10:10:52.382Z,40.60
2019-02-28T10:13:23.268Z,39.70
2019-02-28T10:15:53.922Z,40.23
2019-02-28T10:18:23.914Z,38.53
2019-02-28T10:20:54.088Z,39.43
2019-02-28T10:23:24.056Z,36.40
2019-02-28T10:25:54.954Z,39.40
2019-02-28T10:28:25.250Z,37.37
2019-02-28T10:30:55.567Z,38.20
2019-02-28T10:33:26.265Z,36.90
2019-02-28T10:35:56.185Z,36.93
2019-02-28T10:38:29.396Z,38.57
2019-02-28T10:40:58.570Z,38.90
2019-02-28T10:43:28.615Z,37.60
2019-02-28T10:45:58.662Z,37.60
2019-02-28T10:48:28.585Z,38.10
2019-02-28T10:50:59.928Z,36.90
2019-02-28T10:53:29.846Z,37.23
2019-02-28T10:55:59.950Z,39.00
2019-02-28T10:58:29.933Z,37.93
2019-02-28T11:01:00.234Z,40.33
2019-02-28T11:03:32.266Z,38.90
2019-02-28T11:06:01.884Z,40.00
2019-02-28T11:08:31.770Z,39.23
2019-02-28T11:11:01.726Z,39.23
2019-02-28T11:13:31.970Z,41.07
2019-02-28T11:16:02.991Z,37.23
2019-02-28T11:18:33.042Z,39.57
2019-02-28T11:21:03.294Z,38.73
2019-02-28T11:23:33.217Z,38.50
2019-02-28T11:26:03.311Z,38.47
2019-02-28T11:28:33.251Z,41.03
2019-02-28T11:31:03.534Z,37.17
2019-02-28T11:33:36.519Z,38.53
2019-02-28T11:36:07.432Z,38.97
2019-02-28T11:38:37.285Z,38.33
2019-02-28T11:41:07.792Z,37.30
2019-02-28T11:43:38.604Z,37.17
2019-02-28T11:46:09.658Z,38.00
2019-02-28T11:48:39.614Z,37.50
2019-02-28T11:51:09.578Z,37.80
2019-02-28T11:53:40.515Z,38.20
2019-02-28T11:56:10.682Z,41.63
2019-02-28T11:58:41.477Z,36.33
2019-02-28T12:01:11.491Z,37.30
2019-02-28T12:03:41.358Z,37.80
2019-02-28T12:06:11.659Z,38.70
2019-02-28T12:08:45.066Z,38.10
2019-02-28T12:11:13.961Z,36.90
2019-02-28T12:13:43.894Z,39.93
2019-02-28T12:16:16.228Z,39.53
2019-02-28T12:18:46.442Z,36.60
2019-02-28T12:21:16.469Z,39.53
2019-02-28T12:23:46.857Z,39.07
2019-02-28T12:26:18.736Z,39.00
2019-02-28T12:28:48.739Z,38.50
2019-02-28T12:31:18.697Z,38.10
2019-02-28T12:33:48.652Z,39.07
2019-02-28T12:36:18.592Z,36.77
2019-02-28T12:38:48.741Z,38.47
2019-02-28T12:41:21.683Z,37.80
2019-02-28T12:44:00.275Z,37.67
2019-02-28T12:46:31.915Z,37.80
2019-02-28T12:49:02.352Z,39.17
2019-02-28T12:51:32.304Z,40.30
2019-02-28T12:54:04.126Z,38.90
2019-02-28T12:56:34.189Z,36.10
2019-02-28T12:59:04.270Z,36.00
2019-02-28T13:01:34.419Z,37.63
2019-02-28T13:04:04.328Z,38.23
2019-02-28T13:06:34.285Z,38.47
2019-02-28T13:09:05.780Z,38.27
2019-02-28T13:11:36.445Z,37.53
2019-02-28T13:14:06.748Z,39.83
2019-02-28T13:16:36.648Z,36.90
2019-02-28T13:19:06.588Z,37.53
2019-02-28T13:21:36.611Z,40.00
2019-02-28T13:24:09.544Z,38.60
2019-02-28T13:26:38.116Z,39.30
2019-02-28T13:29:10.032Z,39.07
2019-02-28T13:31:39.719Z,38.30
2019-02-28T13:34:09.685Z,41.67
2019-02-28T13:36:39.701Z,38.53
2019-02-28T13:39:10.178Z,40.13
2019-02-28T13:41:40.178Z,39.37
2019-02-28T13:44:10.107Z,40.77
2019-02-28T13:46:40.140Z,40.10
2019-02-28T13:49:15.403Z,36.93
2019-02-28T13:51:43.965Z,39.70
2019-02-28T13:54:14.004Z,40.57
2019-02-28T13:56:44.211Z,41.80
2019-02-28T13:59:15.333Z,39.07
2019-02-28T14:01:45.368Z,40.70
2019-02-28T14:04:18.692Z,41.60
2019-02-28T14:06:46.967Z,38.90
2019-02-28T14:09:18.850Z,41.93
2019-02-28T14:11:48.614Z,38.73
2019-02-28T14:14:18.516Z,39.30
2019-02-28T14:16:48.505Z,40.17
2019-02-28T14:19:20.447Z,39.27
2019-02-28T14:21:50.485Z,41.27
2019-02-28T14:24:23.273Z,41.40
2019-02-28T14:26:53.233Z,42.80
2019-02-28T14:29:23.177Z,41.13
2019-02-28T14:31:53.263Z,44.70
2019-02-28T14:34:26.020Z,43.17
2019-02-28T14:36:54.781Z,45.00
2019-02-28T14:39:24.807Z,43.30
2019-02-28T14:41:54.758Z,43.70
2019-02-28T14:44:27.869Z,45.77
2019-02-28T14:46:56.302Z,46.00
2019-02-28T14:49:26.310Z,45.93
2019-02-28T14:51:56.443Z,43.50
2019-02-28T14:54:26.372Z,45.73
2019-02-28T14:56:56.333Z,46.67
2019-02-28T14:59:28.540Z,46.10
2019-02-28T15:01:57.860Z,45.90
2019-02-28T15:04:28.118Z,46.63
2019-02-28T15:06:58.386Z,47.17
2019-02-28T15:09:28.402Z,46.37
2019-02-28T15:11:59.929Z,46.60
2019-02-28T15:14:29.996Z,44.20
2019-02-28T15:17:01.999Z,46.90
2019-02-28T15:19:31.669Z,45.73
2019-02-28T15:22:01.638Z,46.47
2019-02-28T15:24:31.746Z,46.40
2019-02-28T15:27:04.173Z,43.90
2019-02-28T15:29:33.497Z,45.03
2019-02-28T15:32:03.670Z,41.67
2019-02-28T15:34:33.683Z,43.13
2019-02-28T15:37:03.826Z,42.90
2019-02-28T15:39:33.750Z,45.40
2019-02-28T15:42:05.521Z,45.50
2019-02-28T15:44:35.455Z,44.70
2019-02-28T15:47:05.563Z,43.67
2019-02-28T15:49:35.595Z,43.90
2019-02-28T15:52:06.331Z,44.03
2019-02-28T15:54:36.423Z,45.87
2019-02-28T15:57:06.618Z,45.97
2019-02-28T15:59:36.571Z,47.27
2019-02-28T16:02:07.232Z,47.40
2019-02-28T16:04:37.316Z,47.60
2019-02-28T16:07:07.332Z,46.07
2019-02-28T16:09:37.330Z,49.73
2019-02-28T16:12:07.291Z,48.90
2019-02-28T16:14:37.254Z,48.43
2019-02-28T16:17:07.257Z,45.97
2019-02-28T16:19:37.325Z,52.63
2019-02-28T16:22:07.367Z,50.20
2019-02-28T16:24:39.791Z,51.07
2019-02-28T16:27:08.931Z,53.30
2019-02-28T16:29:38.897Z,51.97
2019-02-28T16:32:08.873Z,50.90
2019-02-28T16:34:42.364Z,50.70
2019-02-28T16:37:10.589Z,54.63
2019-02-28T16:39:40.516Z,52.47
2019-02-28T16:42:11.556Z,54.43
2019-02-28T16:44:42.269Z,59.37
2019-02-28T16:47:12.329Z,54.20
2019-02-28T16:49:44.425Z,53.83
2019-02-28T16:52:13.924Z,58.10
2019-02-28T16:54:44.009Z,58.37
2019-02-28T16:57:14.128Z,54.80
2019-02-28T16:59:44.078Z,56.70
2019-02-28T17:02:14.285Z,56.57
2019-02-28T17:04:44.227Z,59.10
2019-02-28T17:07:14.223Z,58.17
2019-02-28T17:09:44.673Z,58.60
2019-02-28T17:12:37.147Z,58.53
2019-02-28T17:15:13.776Z,57.63
2019-02-28T17:18:03.245Z,58.47
2019-02-28T17:20:33.496Z,55.10
2019-02-28T17:23:04.371Z,57.17
2019-02-28T17:25:34.529Z,57.63
2019-02-28T17:28:24.819Z,56.03
2019-02-28T17:31:12.682Z,57.63
2019-02-28T17:33:46.200Z,56.00
2019-02-28T17:36:15.648Z,60.50
2019-02-28T17:38:46.175Z,58.80
2019-02-28T17:41:17.743Z,58.13
2019-02-28T17:44:28.014Z,58.80
2019-02-28T17:47:01.557Z,56.67
2019-02-28T17:50:12.082Z,58.87
2019-02-28T17:53:19.699Z,59.37
2019-02-28T17:56:30.197Z,63.73
2019-02-28T18:00:00.053Z,62.70
2019-02-28T18:03:17.586Z,59.80
2019-02-28T18:06:13.116Z,63.87
2019-02-28T18:09:06.056Z,60.13
2019-02-28T18:12:31.710Z,61.83
2019-02-28T18:15:30.230Z,56.87
2019-02-28T18:18:37.221Z,61.47
2019-02-28T18:21:49.022Z,56.90
2019-02-28T18:25:03.420Z,59.63
2019-02-28T18:28:01.349Z,60.00
2019-02-28T18:31:08.720Z,63.37
2019-02-28T18:33:41.851Z,60.87
2019-02-28T18:36:15.642Z,62.73
2019-02-28T18:38:45.595Z,61.50
2019-02-28T18:41:15.592Z,58.40
2019-02-28T18:43:45.523Z,60.47
2019-02-28T18:46:15.557Z,63.13
2019-02-28T18:48:45.590Z,60.43
2019-02-28T18:51:16.751Z,59.73
2019-02-28T18:53:46.797Z,60.47
2019-02-28T18:56:16.773Z,59.87
2019-02-28T18:58:46.810Z,59.90
2019-02-28T19:01:16.782Z,60.43
2019-02-28T19:03:46.722Z,59.10
2019-02-28T19:06:16.930Z,61.70
2019-02-28T19:08:48.507Z,62.33
2019-02-28T19:11:18.631Z,59.47
2019-02-28T19:13:48.595Z,63.13
2019-02-28T19:16:18.734Z,63.10
2019-02-28T19:18:48.743Z,64.93
2019-02-28T19:21:18.875Z,66.30
2019-02-28T19:23:50.223Z,66.17
2019-02-28T19:26:20.240Z,66.20
2019-02-28T19:28:50.196Z,66.10
2019-02-28T19:31:20.154Z,64.20
2019-02-28T19:33:50.170Z,61.97
2019-02-28T19:36:20.197Z,62.97
2019-02-28T19:38:50.291Z,56.60
2019-02-28T19:41:20.330Z,61.33
2019-02-28T19:43:50.266Z,59.87
2019-02-28T19:46:20.222Z,56.17
2019-02-28T19:48:50.220Z,57.30
2019-02-28T19:51:20.227Z,59.50
2019-02-28T19:53:50.669Z,63.53
2019-02-28T19:56:20.902Z,55.77
2019-02-28T19:58:50.930Z,58.90
2019-02-28T20:01:21.149Z,55.13
2019-02-28T20:03:51.079Z,55.70
2019-02-28T20:06:21.295Z,54.90
2019-02-28T20:08:51.434Z,51.93
2019-02-28T20:11:21.489Z,55.23
2019-02-28T20:13:51.815Z,60.20
2019-02-28T20:16:21.960Z,54.77
2019-02-28T20:18:51.994Z,56.03
2019-02-28T20:21:22.199Z,54.27
2019-02-28T20:23:52.406Z,53.10
2019-02-28T20:26:22.493Z,55.67
2019-02-28T20:28:52.509Z,57.50
2019-02-28T20:31:22.562Z,52.40
2019-02-28T20:33:52.589Z,55.83
2019-02-28T20:36:22.605Z,53.37
2019-02-28T20:38:52.564Z,53.70
2019-02-28T20:41:22.653Z,47.30
2019-02-28T20:43:52.774Z,48.97
2019-02-28T20:46:22.795Z,51.13
2019-02-28T20:48:52.837Z,46.77
2019-02-28T20:51:22.914Z,46.53
2019-02-28T20:53:52.998Z,45.10
2019-02-28T20:56:22.980Z,44.73
2019-02-28T20:58:53.051Z,43.40
2019-02-28T21:01:23.097Z,44.53
2019-02-28T21:03:53.152Z,42.57
2019-02-28T21:06:24.106Z,43.17
2019-02-28T21:08:54.207Z,44.80
2019-02-28T21:11:24.276Z,42.43
2019-02-28T21:13:54.295Z,42.63
2019-02-28T21:16:24.438Z,43.07
2019-02-28T21:18:54.453Z,43.87
2019-02-28T21:21:24.486Z,41.90
2019-02-28T21:23:54.628Z,43.87
2019-02-28T21:26:24.640Z,45.50
2019-02-28T21:28:54.689Z,46.43
2019-02-28T21:31:24.667Z,45.80
2019-02-28T21:33:54.926Z,47.10
2019-02-28T21:36:25.041Z,47.90
2019-02-28T21:38:55.256Z,49.80
2019-02-28T21:41:25.430Z,47.40
2019-02-28T21:43:55.473Z,45.30
2019-02-28T21:46:25.423Z,47.67
2019-02-28T21:48:55.465Z,49.07
2019-02-28T21:51:25.417Z,47.57
2019-02-28T21:53:55.468Z,50.50
2019-02-28T21:56:25.498Z,46.97
2019-02-28T21:58:55.499Z,50.13
2019-02-28T22:01:25.570Z,49.87
2019-02-28T22:03:55.595Z,48.43
2019-02-28T22:06:25.532Z,47.53
2019-02-28T22:08:55.513Z,50.87
2019-02-28T22:11:25.465Z,49.73
2019-02-28T22:13:55.506Z,46.60
2019-02-28T22:16:25.612Z,47.90
2019-02-28T22:18:55.650Z,47.77
2019-02-28T22:21:26.314Z,49.60
2019-02-28T22:23:56.284Z,49.90
2019-02-28T22:26:26.309Z,48.37
2019-02-28T22:28:56.414Z,49.90
2019-02-28T22:32:00.845Z,49.97
2019-02-28T22:35:08.646Z,48.60
2019-02-28T22:37:38.641Z,49.47
2019-02-28T22:40:08.761Z,49.13
2019-02-28T22:42:38.785Z,47.40
2019-02-28T22:45:09.026Z,47.70
2019-02-28T22:47:38.942Z,47.00
2019-02-28T22:50:09.149Z,46.87
2019-02-28T22:52:39.183Z,46.30
2019-02-28T22:55:09.363Z,46.73
2019-02-28T22:57:39.477Z,43.87
2019-02-28T23:00:16.766Z,46.77
2019-02-28T23:02:46.897Z,45.73
2019-02-28T23:05:16.866Z,43.27
2019-02-28T23:07:46.998Z,41.80
2019-02-28T23:10:16.979Z,39.43
2019-02-28T23:12:46.956Z,38.37
2019-02-28T23:15:16.942Z,38.67
2019-02-28T23:17:46.889Z,36.30
2019-02-28T23:20:16.939Z,35.77
2019-02-28T23:22:46.969Z,35.13
2019-02-28T23:25:17.024Z,34.67
2019-02-28T23:27:46.993Z,31.43
2019-02-28T23:30:44.229Z,36.93
2019-02-28T23:33:18.004Z,37.00
2019-02-28T23:35:49.422Z,34.77
2019-02-28T23:38:19.387Z,33.50
2019-02-28T23:40:49.558Z,32.00
2019-02-28T23:43:19.522Z,30.80
2019-02-28T23:45:49.569Z,29.23
2019-02-28T23:48:19.531Z,30.70
2019-02-28T23:50:49.577Z,30.60
2019-02-28T23:53:19.518Z,34.27
2019-02-28T23:55:49.555Z,35.60
2019-02-28T23:58:19.658Z,33.77
